Airfield :







YOU CAN JOIN US ON...

 
LOGIN :

Register | Disclaimer

   EN    FR    IT 

 









Legend :    VFR   Marginal VFR   IFR   Intensive IFR   Very Intensive IFR
Visi :
Ceiling :
>= 8 km
>= 3000ft
5 to 8 km
1000 to 3000 ft
1500m to 5 km
500 to 1000 ft
800 to 1500m
200 to 500 ft
< 800m
< 200 ft
Symbols :   Thunderstorms  Fog  Heavy snow  Heavy precipitations  Wind > 20 kt






- Airport Elevation : 203 ft
- IATA code : YQY


CYQY - Sydney

CURRENT METAR :
  • 061800Z 06003KT 15SM -RA OVC018 12/10 A2981 RMK SC8 SLP098

EXPIRED METARs :
  • 061755Z 05004KT 15SM -RA OVC018 12/10 A2981 RMK SC8 SLP098
  • 061700Z 07005KT 15SM OVC019 15/10 A2983 RMK SC8 SLP103 DENSITY ALT 400FT
  • 061600Z 08006KT 15SM OVC018 17/10 A2983 RMK SC8 SLP102 DENSITY ALT 600FT

TAF TAF CYQY
Valid from the 06 at 18:00 until the 07 at 06:00 UTC


061741Z 0618/0706 07005KT P6SM SCT008 OVC020
TEMPO 0618/0622 3SM -RA -DZ BR OVC008
FM062200 36005KT 2SM -DZ BR OVC005
TEMPO 0622/0703 4SM -RA BR OVC010
FM070300 32005KT 2SM -RA BR OVC006
TEMPO 0703/0706 3/4SM RA BR OVC003
PROB30 0703/0706 1SM TSRA BR BKN003 BKN015CB RMK NXT FCST BY 070000Z
CZQM FIR / North America



MET'MAP, your aeronautical weather chart ! - Copyright ORBIFLY December 2007 - Disclaimer

ORBIFLY MET'MAP TEAM :

Programming & Development : Alexandra Zaïnal
Concept & original design : Baudouin d'Aumeries
Assistance for programming : Marc-Olivier Méhu
Technical & hardware support : Manuel Goepfert

Contact : metmap@orbifly.com




SOURCES & CREDITS :

   NOAA